Time;durP1;ratioP1;P1;durP2;ratioP2;P2;SDS_P1;SDS_P2;PMS_P1;PMS_P2;Temp;Humidity;BMP_temperature;BMP_pressure;BME280_temperature;BME280_humidity;BME280_pressure;Samples;Min_cycle;Max_cycle;Signal;HPM_P1;HPM_P2
2021/04/25 00:00:25;;;;;;;12.40;8.15;;;14.00;74.80;;;13.69;52.36;101491.06;4090163;29;20399;-72
2021/04/25 00:02:27;;;;;;;16.33;7.82;;;13.90;74.90;;;13.76;52.47;101492.94;4090277;29;20059;-72
2021/04/25 00:04:28;;;;;;;12.85;8.05;;;13.90;75.00;;;13.58;52.13;101494.84;4104730;29;20031;-72
2021/04/25 00:06:29;;;;;;;15.18;8.02;;;13.80;74.40;;;13.53;52.37;101502.41;4089808;29;20040;-72
2021/04/25 00:08:31;;;;;;;12.32;7.30;;;13.90;74.80;;;13.54;52.55;101501.44;4089693;29;20032;-72
2021/04/25 00:10:32;;;;;;;14.00;7.70;;;13.80;74.60;;;13.52;52.61;101505.22;4089926;29;20055;-72
2021/04/25 00:12:33;;;;;;;15.30;7.90;;;13.80;74.70;;;13.52;52.45;101502.56;4090112;29;20079;-72
2021/04/25 00:14:34;;;;;;;15.20;8.05;;;13.80;74.90;;;13.55;52.44;101505.75;4089694;29;20495;-71
2021/04/25 00:16:36;;;;;;;15.10;8.30;;;13.70;74.90;;;13.50;52.36;101501.91;4089949;29;20067;-72
2021/04/25 00:18:38;;;;;;;13.10;7.70;;;13.80;74.80;;;13.35;52.87;101498.97;4089879;29;20026;-72
2021/04/25 00:20:39;;;;;;;14.93;8.82;;;13.70;74.90;;;13.43;52.81;101499.03;4089720;29;20495;-71
2021/04/25 00:22:41;;;;;;;15.98;7.90;;;13.70;75.20;;;13.44;53.13;101503.34;4089234;29;20031;-71
2021/04/25 00:24:42;;;;;;;14.05;8.50;;;13.60;75.70;;;13.42;52.86;101493.88;4089918;29;20428;-72
2021/04/25 00:26:43;;;;;;;15.35;8.52;;;13.60;75.60;;;13.32;53.42;101503.78;4089829;29;20035;-71
2021/04/25 00:28:44;;;;;;;17.35;8.80;;;13.60;75.60;;;13.24;53.19;101502.72;4089678;29;20127;-72
2021/04/25 00:30:45;;;;;;;15.43;8.40;;;13.60;75.30;;;13.38;52.71;101508.44;4089433;29;20123;-71
2021/04/25 00:32:47;;;;;;;14.43;8.98;;;13.50;75.30;;;13.40;52.75;101509.97;4089496;29;20053;-72
2021/04/25 00:34:48;;;;;;;15.93;8.93;;;13.60;75.80;;;13.37;52.84;101517.38;4089845;29;20459;-71
2021/04/25 00:36:49;;;;;;;11.88;7.80;;;13.50;75.60;;;13.31;52.67;101508.22;4089470;29;20036;-71
2021/04/25 00:38:50;;;;;;;15.50;9.43;;;13.50;75.30;;;13.32;52.51;101516.00;4089664;29;20028;-71
2021/04/25 00:40:51;;;;;;;13.93;8.68;;;13.40;75.60;;;13.20;53.39;101514.59;4089758;29;20042;-72
2021/04/25 00:42:52;;;;;;;12.63;8.38;;;13.50;76.20;;;13.22;53.57;101503.88;4089495;29;20031;-72
2021/04/25 00:44:53;;;;;;;20.90;9.90;;;13.30;76.50;;;13.17;53.11;101492.91;4078578;29;20423;-72
2021/04/25 00:46:54;;;;;;;12.75;7.68;;;13.30;76.00;;;13.14;53.49;101501.97;4088238;29;20055;-72
2021/04/25 00:48:55;;;;;;;15.88;8.68;;;13.30;76.40;;;13.13;53.46;101508.28;4073834;29;20032;-72
2021/04/25 00:50:57;;;;;;;14.63;7.88;;;13.30;76.20;;;13.13;53.70;101505.63;4077658;29;20107;-72
2021/04/25 00:52:58;;;;;;;16.25;8.05;;;13.30;76.40;;;13.06;53.88;101501.88;4083720;29;20024;-72
2021/04/25 00:54:59;;;;;;;14.20;9.07;;;13.30;76.50;;;13.06;53.69;101498.41;4103923;29;20118;-71
2021/04/25 00:57:00;;;;;;;14.13;8.13;;;13.20;76.70;;;12.99;53.39;101492.88;4089354;29;20380;-72
2021/04/25 00:59:02;;;;;;;12.50;8.38;;;13.20;76.50;;;12.99;53.52;101492.06;4089196;29;20031;-71
2021/04/25 01:01:03;;;;;;;22.20;8.45;;;13.20;76.40;;;13.00;53.66;101497.19;4089234;29;20032;-71
2021/04/25 01:03:04;;;;;;;14.63;8.30;;;13.20;76.50;;;12.94;54.80;101505.75;4089093;29;20094;-72
2021/04/25 01:05:12;;;;;;;11.57;7.78;;;13.10;77.80;;;12.94;54.23;101503.09;4103990;29;20031;-72
2021/04/25 01:07:13;;;;;;;13.65;8.20;;;13.00;77.40;;;12.97;54.08;101504.59;4088872;29;20039;-71
2021/04/25 01:09:14;;;;;;;13.95;8.43;;;13.00;77.40;;;12.93;53.98;101498.78;4089155;29;20020;-72
2021/04/25 01:11:15;;;;;;;13.95;8.52;;;13.00;77.10;;;12.83;54.15;101502.50;4088928;29;20079;-72
2021/04/25 01:13:18;;;;;;;14.95;8.73;;;13.00;77.20;;;12.91;54.25;101498.13;4103994;29;20102;-72
2021/04/25 01:15:22;;;;;;;12.82;7.47;;;13.00;77.30;;;12.78;54.33;101493.19;4088041;29;20028;-71
2021/04/25 01:17:23;;;;;;;15.43;8.95;;;13.00;77.30;;;12.79;54.46;101501.97;4088915;29;20036;-72
2021/04/25 01:19:24;;;;;;;15.80;8.48;;;13.00;77.10;;;12.70;54.32;101492.28;4088802;29;20084;-72
2021/04/25 01:21:24;;;;;;;16.88;8.90;;;12.90;77.00;;;12.69;54.73;101482.72;4089214;29;20040;-71
2021/04/25 01:23:25;;;;;;;16.60;8.52;;;12.90;77.60;;;12.65;55.11;101494.56;4103451;29;20024;-72
2021/04/25 01:25:27;;;;;;;17.67;9.15;;;12.80;78.30;;;12.68;55.05;101487.16;4088798;29;20036;-72
2021/04/25 01:27:28;;;;;;;16.17;8.98;;;12.70;78.60;;;12.69;54.51;101485.34;4088621;29;20115;-72
2021/04/25 01:29:29;;;;;;;14.15;8.05;;;12.70;77.60;;;12.60;55.11;101481.78;4088891;29;20024;-71
2021/04/25 01:31:29;;;;;;;15.05;8.63;;;12.70;78.40;;;12.64;54.87;101469.06;4088796;29;20028;-73
2021/04/25 01:33:33;;;;;;;13.98;8.52;;;12.70;78.00;;;12.56;55.13;101469.84;4088868;29;20067;-71
2021/04/25 01:35:34;;;;;;;13.10;7.87;;;12.70;78.50;;;12.56;54.78;101469.00;4088720;29;20031;-71
2021/04/25 01:37:35;;;;;;;10.50;7.60;;;12.70;78.00;;;12.45;54.71;101462.13;4088574;29;20275;-73
2021/04/25 01:39:36;;;;;;;13.35;7.63;;;12.70;77.80;;;12.46;54.97;101462.94;4103246;29;20099;-72
2021/04/25 01:41:37;;;;;;;13.43;8.52;;;12.60;78.00;;;12.44;55.44;101456.97;4088510;29;20071;-71
2021/04/25 01:43:37;;;;;;;13.23;8.13;;;12.60;78.50;;;12.32;55.42;101453.72;4086910;29;20489;-74
2021/04/25 01:45:39;;;;;;;13.45;8.75;;;12.50;78.20;;;12.26;55.78;101450.84;4072198;29;20060;-71
2021/04/25 01:47:40;;;;;;;15.45;7.75;;;12.50;78.70;;;12.26;55.38;101448.19;4072866;29;20028;-71
2021/04/25 01:49:40;;;;;;;15.52;9.23;;;12.40;78.70;;;12.26;55.51;101441.09;4088573;29;20031;-71
2021/04/25 01:51:42;;;;;;;14.20;8.50;;;12.40;78.80;;;12.24;55.30;101451.00;4074328;29;20500;-71
2021/04/25 01:53:43;;;;;;;14.73;9.20;;;12.40;78.40;;;12.18;55.39;101451.59;4088501;29;20436;-71
2021/04/25 01:55:45;;;;;;;11.30;7.45;;;12.50;78.20;;;12.13;55.71;101453.84;4088360;29;20148;-71
2021/04/25 01:57:46;;;;;;;15.00;8.35;;;12.40;78.50;;;12.20;55.33;101468.97;4088386;29;20032;-72
2021/04/25 01:59:47;;;;;;;12.52;7.93;;;12.40;78.50;;;12.03;56.04;101459.22;4088186;29;20055;-71
2021/04/25 02:01:48;;;;;;;16.40;8.65;;;12.30;79.10;;;12.18;55.10;101468.28;4087132;29;20024;-71
2021/04/25 02:03:49;;;;;;;17.48;9.55;;;12.30;78.70;;;12.12;55.00;101470.72;4088346;29;20415;-72
2021/04/25 02:05:49;;;;;;;11.90;8.18;;;12.30;78.40;;;12.11;55.16;101472.50;4088275;29;20045;-72
2021/04/25 02:07:52;;;;;;;12.35;7.50;;;12.20;78.60;;;12.20;55.56;101476.91;4087817;29;20035;-71
2021/04/25 02:09:53;;;;;;;12.77;7.78;;;12.20;79.20;;;11.86;55.40;101465.25;4088318;29;20028;-71
2021/04/25 02:11:54;;;;;;;14.25;7.75;;;12.20;78.40;;;11.94;55.43;101468.03;4088331;29;20491;-72
2021/04/25 02:13:55;;;;;;;13.77;8.07;;;12.10;78.60;;;11.99;55.40;101472.84;4088259;29;20024;-71
2021/04/25 02:15:56;;;;;;;15.40;8.18;;;12.10;78.50;;;11.89;55.38;101467.59;4088058;29;20027;-72
2021/04/25 02:17:57;;;;;;;14.60;7.88;;;12.10;78.30;;;11.89;55.16;101472.06;4088260;29;20023;-71
2021/04/25 02:19:58;;;;;;;12.63;8.18;;;12.10;78.70;;;11.81;55.68;101464.88;4102699;29;20034;-74
2021/04/25 02:21:59;;;;;;;12.88;8.00;;;12.10;78.70;;;11.81;55.62;101478.09;4086931;29;20095;-72
2021/04/25 02:24:00;;;;;;;11.10;6.70;;;12.00;78.60;;;11.80;55.93;101465.03;4088047;29;20027;-72
2021/04/25 02:26:01;;;;;;;15.70;8.07;;;12.10;79.10;;;11.85;55.62;101473.34;4088105;29;20032;-72
2021/04/25 02:28:02;;;;;;;12.90;8.70;;;12.00;79.00;;;11.88;55.50;101476.53;4088115;29;20456;-74
2021/04/25 02:30:11;;;;;;;12.35;8.10;;;12.00;78.80;;;11.92;55.53;101471.75;4088036;29;20027;-72
2021/04/25 02:32:12;;;;;;;13.13;7.85;;;12.00;78.90;;;11.90;55.40;101474.56;4087943;29;20032;-72
2021/04/25 02:34:13;;;;;;;14.32;8.27;;;12.00;78.80;;;11.71;56.33;101469.34;4088205;29;20526;-72
2021/04/25 02:36:14;;;;;;;13.20;8.77;;;12.00;79.10;;;11.76;56.19;101469.78;4088139;29;20028;-72
2021/04/25 02:38:15;;;;;;;13.63;7.80;;;12.00;79.30;;;11.77;56.03;101457.41;4087880;29;20415;-74
2021/04/25 02:40:21;;;;;;;14.35;8.63;;;11.90;79.30;;;11.79;55.86;101452.78;4088080;29;20047;-72
2021/04/25 02:42:22;;;;;;;13.85;7.38;;;12.00;79.40;;;11.67;56.63;101465.34;4088070;29;20066;-72
2021/04/25 02:44:22;;;;;;;14.00;7.43;;;11.90;79.90;;;11.56;56.82;101457.56;4080809;29;20048;-72
2021/04/25 02:46:23;;;;;;;13.48;7.28;;;11.80;80.20;;;11.57;56.43;101459.25;4072279;29;20111;-72
2021/04/25 02:48:24;;;;;;;12.70;7.45;;;11.90;79.50;;;11.50;56.38;101456.34;4072105;29;20559;-72
2021/04/25 02:50:34;;;;;;;13.70;7.05;;;11.70;79.50;;;11.54;56.63;101451.59;4076075;29;20059;-72
2021/04/25 02:52:35;;;;;;;10.60;7.50;;;11.80;79.70;;;11.45;57.07;101457.75;4093863;29;20622;-72
2021/04/25 02:54:36;;;;;;;10.02;7.10;;;11.70;80.30;;;11.49;56.64;101457.34;4088006;29;20028;-72
2021/04/25 02:56:37;;;;;;;13.00;7.97;;;11.70;80.40;;;11.49;56.57;101456.50;4087833;29;20039;-74
2021/04/25 02:58:38;;;;;;;11.38;7.10;;;11.60;80.10;;;11.38;57.29;101444.28;4091220;29;20024;-72
2021/04/25 03:00:39;;;;;;;12.13;8.07;;;11.60;81.00;;;11.48;56.86;101441.59;4105893;29;20032;-72
2021/04/25 03:02:39;;;;;;;12.75;7.63;;;11.60;80.50;;;11.49;56.99;101457.34;4089978;29;20118;-72
2021/04/25 03:04:40;;;;;;;12.27;7.50;;;11.60;80.50;;;11.56;56.66;101453.13;4090953;29;20499;-74
2021/04/25 03:06:41;;;;;;;13.43;7.35;;;11.60;80.60;;;11.46;57.11;101454.97;4090876;29;20566;-72
2021/04/25 03:08:42;;;;;;;14.23;7.70;;;11.50;81.50;;;11.46;57.03;101451.50;4091075;29;20039;-72
2021/04/25 03:10:43;;;;;;;12.55;7.57;;;11.50;80.80;;;11.31;56.81;101437.09;4091137;29;20038;-72
2021/04/25 03:12:46;;;;;;;12.18;7.80;;;11.60;80.80;;;11.43;56.98;101454.44;4105605;29;20039;-74
2021/04/25 03:14:47;;;;;;;13.20;6.68;;;11.60;80.40;;;11.34;57.59;101460.56;4090857;29;20106;-73
2021/04/25 03:16:48;;;;;;;12.20;7.57;;;11.60;80.90;;;11.24;57.28;101452.66;4090991;29;20436;-73
2021/04/25 03:18:49;;;;;;;11.98;7.30;;;11.50;81.00;;;11.17;58.11;101450.75;4090963;29;20038;-73
2021/04/25 03:20:50;;;;;;;13.48;7.53;;;11.50;81.70;;;11.24;57.68;101451.81;4090847;29;20028;-74
2021/04/25 03:22:51;;;;;;;12.07;7.20;;;11.40;81.70;;;11.07;58.60;101437.56;4090504;29;20052;-74
2021/04/25 03:24:52;;;;;;;12.23;7.47;;;11.40;82.10;;;11.13;58.80;101439.63;4090940;29;20480;-74
2021/04/25 03:26:53;;;;;;;13.55;7.53;;;11.40;82.90;;;11.19;58.06;101449.63;4090709;29;20031;-73
2021/04/25 03:28:54;;;;;;;10.60;7.53;;;11.30;81.90;;;11.10;58.21;101448.69;4091008;29;20046;-74
2021/04/25 03:30:55;;;;;;;13.13;7.55;;;11.20;82.10;;;11.08;58.42;101440.06;4090553;29;20468;-74
2021/04/25 03:32:56;;;;;;;10.35;7.28;;;11.30;81.90;;;11.07;58.53;101435.75;4090669;29;20115;-73
2021/04/25 03:34:57;;;;;;;12.13;7.28;;;11.20;82.10;;;11.06;58.81;101443.81;4090728;29;20024;-74
2021/04/25 03:36:58;;;;;;;10.98;7.57;;;11.30;82.60;;;10.93;59.39;101441.47;4090378;29;20119;-74
2021/04/25 03:39:00;;;;;;;13.18;7.32;;;11.20;82.70;;;10.99;58.40;101440.91;4090434;29;20059;-73
2021/04/25 03:41:01;;;;;;;14.10;8.18;;;11.10;82.40;;;11.00;57.99;101424.09;4090588;29;20027;-74
2021/04/25 03:43:02;;;;;;;11.13;7.68;;;11.20;82.30;;;10.96;58.63;101435.09;4090494;29;20026;-74
2021/04/25 03:45:06;;;;;;;12.30;7.43;;;11.20;82.40;;;10.98;58.66;101428.69;4078184;29;20075;-74
2021/04/25 03:47:06;;;;;;;11.27;7.35;;;11.10;83.10;;;10.83;59.02;101427.47;4074721;29;20039;-73
2021/04/25 03:49:08;;;;;;;12.38;7.78;;;11.20;82.30;;;10.80;59.52;101433.03;4074794;29;20400;-74
2021/04/25 03:51:08;;;;;;;11.45;7.47;;;11.10;83.30;;;10.81;59.26;101425.94;4078118;29;20020;-74
2021/04/25 03:53:09;;;;;;;11.50;7.32;;;11.10;82.90;;;10.67;59.62;101427.19;4086634;29;20039;-74
2021/04/25 03:55:13;;;;;;;12.38;7.85;;;11.10;82.70;;;10.68;59.50;101413.03;4090260;29;20036;-74
2021/04/25 03:57:13;;;;;;;11.88;7.47;;;11.00;83.50;;;10.71;59.95;101433.03;4090277;29;20078;-74
2021/04/25 03:59:14;;;;;;;11.32;6.68;;;10.90;83.60;;;10.78;59.59;101423.59;4090274;29;20127;-74
2021/04/25 04:01:15;;;;;;;14.52;8.77;;;10.90;83.60;;;10.48;59.05;101406.91;4089950;29;20038;-74
2021/04/25 04:03:16;;;;;;;17.80;8.07;;;10.90;82.70;;;10.56;59.78;101408.88;4104855;29;20090;-74
2021/04/25 04:05:17;;;;;;;13.45;9.00;;;10.90;83.50;;;10.50;60.27;101410.28;4090258;29;20067;-73
2021/04/25 04:07:18;;;;;;;11.98;7.75;;;10.80;84.20;;;10.52;59.37;101405.69;4089733;29;20032;-74
2021/04/25 04:09:19;;;;;;;12.93;7.80;;;10.80;83.60;;;10.39;59.97;101406.94;4089653;29;20039;-74
2021/04/25 04:11:20;;;;;;;10.18;7.45;;;10.80;83.60;;;10.41;60.38;101410.25;4104514;29;20136;-74
2021/04/25 04:13:21;;;;;;;10.85;7.03;;;10.80;83.90;;;10.42;60.34;101407.47;4090076;29;20376;-74
2021/04/25 04:15:22;;;;;;;12.50;7.63;;;10.70;84.40;;;10.42;59.91;101390.84;4090128;29;20432;-74
2021/04/25 04:17:23;;;;;;;13.32;7.38;;;10.70;84.20;;;10.51;59.49;101416.38;4089816;29;20031;-74
2021/04/25 04:19:25;;;;;;;13.25;7.47;;;10.70;84.00;;;10.44;60.71;101402.91;4089794;29;20031;-74
2021/04/25 04:21:25;;;;;;;11.88;7.38;;;10.70;84.10;;;10.38;61.07;101405.25;4089951;29;20087;-74
2021/04/25 04:23:26;;;;;;;13.23;8.00;;;10.70;84.60;;;10.23;60.90;101401.38;4089874;29;20031;-74
2021/04/25 04:25:27;;;;;;;12.25;7.78;;;10.60;84.80;;;10.26;61.24;101396.66;4089847;29;20040;-73
2021/04/25 04:27:28;;;;;;;12.98;8.50;;;10.60;84.80;;;10.22;60.91;101378.59;4089790;29;20510;-74
2021/04/25 04:29:29;;;;;;;11.73;7.20;;;10.50;85.60;;;10.32;61.46;101397.91;4089930;29;20032;-73
2021/04/25 04:31:30;;;;;;;11.45;7.60;;;10.50;86.40;;;10.26;61.42;101412.47;4104326;29;20023;-74
2021/04/25 04:33:31;;;;;;;12.10;8.00;;;10.50;85.30;;;10.28;61.96;101396.50;4089714;29;20031;-74
2021/04/25 04:35:32;;;;;;;16.25;7.55;;;10.50;85.90;;;10.37;60.90;101408.88;4089546;29;20112;-74
2021/04/25 04:37:33;;;;;;;12.68;7.22;;;10.60;85.50;;;10.35;61.04;101402.91;4089653;29;20420;-74
2021/04/25 04:39:35;;;;;;;11.23;7.25;;;10.60;85.60;;;10.33;61.10;101391.66;4089648;29;20035;-74
2021/04/25 04:41:36;;;;;;;10.68;7.53;;;10.50;85.30;;;10.22;61.87;101389.16;4089578;29;20039;-74
2021/04/25 04:43:36;;;;;;;15.77;9.40;;;10.40;85.90;;;10.04;61.81;101391.59;4103863;29;20047;-74
2021/04/25 04:45:37;;;;;;;11.15;7.20;;;10.40;85.60;;;10.08;61.80;101392.16;4086004;29;20040;-74
2021/04/25 04:47:40;;;;;;;15.95;8.00;;;10.40;85.30;;;10.02;61.53;101383.84;4073809;29;20425;-74
2021/04/25 04:49:41;;;;;;;11.40;7.68;;;10.50;85.40;;;10.13;61.82;101400.47;4074953;29;20028;-73
2021/04/25 04:51:42;;;;;;;10.95;7.47;;;10.40;85.50;;;10.18;61.63;101387.78;4076270;29;20060;-74
2021/04/25 04:53:43;;;;;;;14.20;7.78;;;10.40;85.90;;;9.92;61.95;101393.53;4089374;29;20027;-73
2021/04/25 04:55:44;;;;;;;13.07;7.57;;;10.40;85.30;;;9.93;61.95;101391.72;4089471;29;20023;-73
2021/04/25 04:57:45;;;;;;;12.05;7.38;;;10.30;85.00;;;10.08;61.92;101392.16;4089302;29;20503;-74
2021/04/25 04:59:46;;;;;;;11.70;7.18;;;10.30;85.70;;;10.06;61.48;101394.09;4089304;29;20032;-73
2021/04/25 05:01:46;;;;;;;11.45;7.68;;;10.30;85.60;;;9.95;61.81;101387.97;4073682;29;20514;-73
2021/04/25 05:03:47;;;;;;;13.88;7.80;;;10.30;85.80;;;10.02;61.92;101389.13;4073481;29;20111;-73
2021/04/25 05:05:49;;;;;;;12.50;8.13;;;10.30;86.00;;;9.93;62.21;101394.34;4073614;29;20032;-73
2021/04/25 05:07:50;;;;;;;10.02;7.50;;;10.30;85.90;;;9.91;62.63;101394.50;4073012;29;20039;-74
2021/04/25 05:09:51;;;;;;;13.32;8.40;;;10.20;86.40;;;9.94;62.11;101396.03;4073487;29;20403;-74
2021/04/25 05:11:54;;;;;;;11.98;8.02;;;10.30;86.10;;;9.78;62.15;101395.72;4073395;29;20035;-74
2021/04/25 05:13:55;;;;;;;12.68;8.20;;;10.20;86.50;;;9.84;62.47;101405.72;4073203;29;20024;-74
2021/04/25 05:15:56;;;;;;;14.23;7.75;;;10.10;86.70;;;9.97;62.03;101399.22;4073148;29;20031;-74
2021/04/25 05:17:57;;;;;;;11.60;7.82;;;10.20;86.60;;;9.91;61.94;101398.94;4073284;29;20088;-73
2021/04/25 05:19:58;;;;;;;15.70;8.70;;;10.20;86.60;;;9.96;62.01;101402.84;4072458;29;20036;-74
2021/04/25 05:21:59;;;;;;;13.15;7.55;;;10.30;86.70;;;10.01;62.25;101410.31;4073181;29;20038;-74
2021/04/25 05:24:00;;;;;;;17.20;8.95;;;10.30;86.80;;;10.10;61.66;101408.66;4073014;29;20060;-73
2021/04/25 05:26:01;;;;;;;11.10;7.90;;;10.30;86.20;;;9.92;62.34;101409.34;4072994;29;20028;-74
2021/04/25 05:28:02;;;;;;;13.63;8.38;;;10.30;86.30;;;9.96;61.98;101416.00;4073120;29;20028;-74
2021/04/25 05:30:05;;;;;;;12.63;8.05;;;10.30;86.70;;;9.94;61.76;101407.41;4073109;29;20468;-74
2021/04/25 05:32:06;;;;;;;11.35;8.13;;;10.30;85.80;;;9.92;61.48;101398.78;4087490;29;20047;-74
2021/04/25 05:34:07;;;;;;;13.30;7.97;;;10.30;85.90;;;9.92;61.44;101393.53;4072896;29;20088;-74
2021/04/25 05:36:08;;;;;;;12.23;8.00;;;10.30;85.80;;;9.92;62.36;101393.53;4073148;29;20555;-74
2021/04/25 05:38:09;;;;;;;17.33;9.43;;;10.40;86.10;;;9.96;61.36;101396.72;4072805;29;20024;-74
2021/04/25 05:40:13;;;;;;;13.18;8.65;;;10.40;85.80;;;10.07;62.29;101390.50;4073005;29;20119;-74
2021/04/25 05:42:14;;;;;;;14.38;8.15;;;10.40;86.90;;;10.06;61.89;101391.47;4090024;29;20023;-74
2021/04/25 05:44:15;;;;;;;12.02;8.38;;;10.40;85.90;;;10.17;61.99;101400.13;4078618;29;20519;-74
2021/04/25 05:46:16;;;;;;;15.38;8.55;;;10.40;86.30;;;9.94;61.65;101410.06;4088513;29;20063;-74
2021/04/25 05:48:17;;;;;;;11.27;8.07;;;10.40;85.50;;;10.08;61.55;101406.19;4088429;29;20032;-74
2021/04/25 05:50:19;;;;;;;11.43;7.90;;;10.50;86.30;;;10.11;62.00;101415.63;4082044;29;20487;-74
2021/04/25 05:52:20;;;;;;;11.52;8.27;;;10.50;86.30;;;10.01;61.40;101411.16;4087124;29;20110;-74
2021/04/25 05:54:21;;;;;;;11.85;7.90;;;10.50;85.50;;;9.89;61.11;101399.06;4087195;29;20055;-74
2021/04/25 05:56:22;;;;;;;14.98;9.02;;;10.60;85.30;;;9.99;61.41;101414.91;4071406;29;20024;-74
2021/04/25 05:58:23;;;;;;;11.80;8.40;;;10.50;85.90;;;10.12;61.76;101409.38;4072588;29;20559;-74
2021/04/25 06:00:28;;;;;;;15.45;8.45;;;10.60;86.40;;;10.15;61.43;101403.88;4072580;29;20028;-74
2021/04/25 06:02:29;;;;;;;11.15;7.80;;;10.60;85.80;;;10.21;61.43;101404.16;4072560;29;20036;-74
2021/04/25 06:04:30;;;;;;;15.00;8.15;;;10.60;86.70;;;10.18;61.49;101406.22;4072744;29;20039;-74
2021/04/25 06:06:32;;;;;;;14.38;8.85;;;10.70;85.40;;;10.07;61.49;101398.38;4072268;29;20404;-74
2021/04/25 06:08:33;;;;;;;12.15;7.63;;;10.70;85.50;;;10.02;61.42;101399.66;4072458;29;20033;-74
2021/04/25 06:10:34;;;;;;;12.27;8.10;;;10.70;84.90;;;10.21;61.15;101411.22;4072561;29;20547;-73
2021/04/25 06:12:35;;;;;;;14.73;8.32;;;10.70;85.00;;;10.18;61.71;101403.59;4072646;29;20055;-74
2021/04/25 06:14:36;;;;;;;14.38;9.05;;;10.70;85.40;;;10.08;61.24;101398.28;4087067;29;20024;-74
2021/04/25 06:16:37;;;;;;;11.95;8.02;;;10.80;85.00;;;10.21;61.59;101398.06;4072524;29;20507;-73
2021/04/25 06:18:38;;;;;;;13.15;8.00;;;10.80;85.20;;;10.25;61.33;101404.69;4072392;29;20036;-73
2021/04/25 06:20:39;;;;;;;11.27;7.65;;;10.80;85.20;;;10.09;61.69;101393.84;4072279;29;20028;-74
2021/04/25 06:22:41;;;;;;;13.05;8.27;;;10.80;85.30;;;10.19;62.54;101395.53;4072062;29;20508;-74
2021/04/25 06:24:43;;;;;;;13.32;8.15;;;10.80;85.90;;;10.17;62.04;101391.38;4072423;29;20388;-74
2021/04/25 06:26:43;;;;;;;10.95;6.90;;;10.80;85.70;;;10.31;61.79;101388.31;4071036;29;20032;-74
2021/04/25 06:28:44;;;;;;;14.23;7.60;;;10.80;85.60;;;10.39;61.11;101389.28;4072186;29;20036;-74
2021/04/25 06:30:45;;;;;;;18.60;8.80;;;10.90;85.20;;;10.38;61.30;101387.66;4071856;29;20027;-74
2021/04/25 06:32:47;;;;;;;13.13;9.02;;;10.90;85.60;;;10.28;60.05;101386.78;4086647;29;20028;-75
2021/04/25 06:34:48;;;;;;;12.93;8.98;;;11.00;84.20;;;10.38;61.06;101392.91;4068357;29;20028;-76
2021/04/25 06:36:49;;;;;;;16.27;9.48;;;11.10;84.30;;;10.26;60.51;101388.75;4081927;29;20066;-76
2021/04/25 06:38:50;;;;;;;12.52;8.65;;;11.10;83.80;;;10.49;60.34;101394.56;4082339;29;20035;-76
2021/04/25 06:40:51;;;;;;;12.60;8.05;;;11.20;84.40;;;10.55;59.64;101397.47;4075833;29;20020;-77
2021/04/25 06:42:52;;;;;;;13.68;8.43;;;11.20;83.80;;;10.54;60.37;101389.72;4102206;29;20027;-77
2021/04/25 06:44:53;;;;;;;10.65;7.13;;;11.20;84.30;;;10.65;60.27;101402.75;4075299;29;20055;-77
2021/04/25 06:46:54;;;;;;;10.60;8.23;;;11.30;83.90;;;10.82;60.01;101402.03;4072965;29;20118;-77
2021/04/25 06:48:56;;;;;;;12.13;7.88;;;11.40;84.10;;;10.76;59.14;101399.97;4087986;29;20509;-77
2021/04/25 06:50:56;;;;;;;12.18;8.18;;;11.40;83.30;;;10.69;59.63;101420.00;4076733;29;20499;-77
2021/04/25 06:52:57;;;;;;;13.27;8.43;;;11.40;82.80;;;10.79;59.75;101434.00;4071374;29;20032;-77
2021/04/25 06:54:58;;;;;;;13.15;8.55;;;11.40;83.10;;;10.87;59.07;101441.22;4071979;29;20082;-76
2021/04/25 06:56:59;;;;;;;15.25;8.82;;;11.40;82.80;;;10.85;59.00;101446.63;4071841;29;20087;-78
2021/04/25 06:59:00;;;;;;;12.65;8.43;;;11.50;82.90;;;10.94;59.41;101458.13;4072101;29;20036;-78
2021/04/25 07:01:01;;;;;;;13.20;7.85;;;11.50;83.20;;;10.84;59.18;101444.94;4072014;29;20035;-76
2021/04/25 07:03:03;;;;;;;15.63;7.78;;;11.60;82.50;;;10.87;59.03;101451.78;4086153;29;20027;-76
2021/04/25 07:05:05;;;;;;;14.27;8.45;;;11.50;82.40;;;10.80;59.32;101448.03;4072067;29;20039;-76
2021/04/25 07:07:07;;;;;;;12.75;7.78;;;11.60;82.80;;;11.04;59.45;101457.16;4085981;29;20027;-77
2021/04/25 07:09:09;;;;;;;10.60;7.85;;;11.60;83.90;;;11.01;59.30;101452.16;4070676;29;20032;-76
2021/04/25 07:11:09;;;;;;;13.68;8.25;;;11.60;83.70;;;11.03;58.45;101455.50;4070737;29;20089;-76
2021/04/25 07:13:10;;;;;;;11.82;7.60;;;11.70;82.40;;;10.98;59.44;101460.38;4071790;29;20021;-76
2021/04/25 07:15:12;;;;;;;12.13;8.43;;;11.60;83.00;;;10.87;59.02;101454.41;4072112;29;20025;-76
2021/04/25 07:17:13;;;;;;;14.55;8.05;;;11.60;82.70;;;11.14;59.09;101477.44;4071518;29;20044;-75
2021/04/25 07:19:14;;;;;;;14.00;8.95;;;11.70;83.20;;;11.12;59.63;101480.22;4071645;29;20028;-75
2021/04/25 07:21:15;;;;;;;14.65;7.30;;;11.70;83.30;;;11.20;59.70;101475.03;4071725;29;20091;-76
2021/04/25 07:23:17;;;;;;;13.45;8.40;;;11.80;84.10;;;11.18;58.77;101477.00;4071804;29;20032;-76
2021/04/25 07:25:18;;;;;;;13.55;8.95;;;11.80;82.80;;;11.24;59.21;101478.25;4072050;29;20396;-76
2021/04/25 07:27:20;;;;;;;12.63;8.73;;;11.80;83.30;;;11.10;59.06;101456.59;4071755;29;20040;-76
2021/04/25 07:29:21;;;;;;;12.73;8.07;;;11.90;83.00;;;11.22;58.98;101467.00;4071719;29;20025;-76
2021/04/25 07:31:22;;;;;;;12.77;8.00;;;11.90;83.20;;;11.39;59.44;101474.19;4071841;29;20028;-75
2021/04/25 07:33:23;;;;;;;14.88;7.80;;;11.90;83.30;;;11.39;59.41;101469.72;4071793;29;20028;-76
2021/04/25 07:35:24;;;;;;;11.63;7.50;;;12.00;83.60;;;11.45;58.92;101463.03;4071671;29;20425;-76
2021/04/25 07:37:25;;;;;;;13.60;7.97;;;12.10;83.00;;;11.62;58.86;101471.03;4071397;29;20508;-76
2021/04/25 07:39:26;;;;;;;11.85;8.10;;;12.20;83.20;;;11.57;59.08;101464.53;4071775;29;20111;-76
2021/04/25 07:41:27;;;;;;;14.52;7.30;;;12.20;83.10;;;11.68;58.24;101466.97;4071745;29;20036;-76
2021/04/25 07:43:28;;;;;;;13.48;7.85;;;12.40;82.60;;;11.62;58.34;101463.09;4099709;28;20067;-76
2021/04/25 07:45:29;;;;;;;11.27;7.57;;;12.40;82.20;;;11.84;57.83;101464.59;4074697;29;20039;-75
2021/04/25 07:47:30;;;;;;;12.88;7.63;;;12.50;81.80;;;11.88;57.75;101463.31;4074645;29;20411;-75
2021/04/25 07:49:32;;;;;;;13.57;8.82;;;12.50;81.70;;;11.82;56.89;101455.97;4074561;29;20024;-76
2021/04/25 07:51:33;;;;;;;13.10;7.07;;;12.60;80.80;;;11.62;58.27;101451.69;4077985;29;20084;-76
2021/04/25 07:53:34;;;;;;;11.02;8.68;;;12.70;82.30;;;11.70;57.60;101435.16;4089590;29;20060;-76
2021/04/25 07:55:35;;;;;;;11.02;7.13;;;12.60;80.90;;;11.85;57.44;101426.59;4090485;29;20031;-75
2021/04/25 07:57:39;;;;;;;11.30;7.55;;;12.70;81.50;;;12.13;57.41;101430.88;4090032;29;20028;-75
2021/04/25 07:59:39;;;;;;;13.18;7.72;;;12.80;81.70;;;11.92;58.09;101406.50;4090252;29;20035;-75
2021/04/25 08:01:40;;;;;;;14.43;7.95;;;12.90;81.20;;;11.97;56.62;101406.91;4089998;29;20035;-75
2021/04/25 08:03:41;;;;;;;10.27;7.72;;;12.90;79.90;;;12.13;56.07;101407.06;4090306;29;20032;-76
2021/04/25 08:05:42;;;;;;;13.95;8.02;;;13.00;79.60;;;12.40;57.66;101406.16;4090096;29;20027;-76
2021/04/25 08:07:45;;;;;;;11.02;7.00;;;13.10;81.50;;;12.46;56.16;101408.22;4089686;29;20214;-76
2021/04/25 08:09:46;;;;;;;12.65;7.15;;;13.20;80.00;;;12.40;56.67;101395.59;4089715;29;20031;-76
2021/04/25 08:11:47;;;;;;;10.02;7.43;;;13.20;80.00;;;12.57;55.14;101412.47;4090152;29;20043;-76
2021/04/25 08:13:48;;;;;;;11.20;7.47;;;13.30;79.10;;;12.60;55.94;101418.25;4089985;29;20078;-76
2021/04/25 08:15:49;;;;;;;10.25;7.40;;;13.40;79.80;;;12.55;55.88;101406.47;4104470;29;20069;-76
2021/04/25 08:17:56;;;;;;;10.50;7.25;;;13.40;79.50;;;12.65;55.13;101404.56;4090015;29;20387;-75
2021/04/25 08:19:57;;;;;;;13.80;7.55;;;13.50;78.70;;;12.69;55.82;101408.59;4089612;29;20036;-75